sensor_id;sensor_type;location;lat;lon;timestamp;pressure;altitude;pressure_sealevel;temperature;humidity
15750;BME280;7976;52.526;13.326;2024-03-17T00:02:24;101712.34;;;6.47;73.71
15750;BME280;7976;52.526;13.326;2024-03-17T00:04:49;101711.44;;;6.48;73.46
15750;BME280;7976;52.526;13.326;2024-03-17T00:07:16;101708.03;;;6.46;73.90
15750;BME280;7976;52.526;13.326;2024-03-17T00:09:44;101717.56;;;6.44;73.98
15750;BME280;7976;52.526;13.326;2024-03-17T00:12:11;101722.75;;;6.44;74.16
15750;BME280;7976;52.526;13.326;2024-03-17T00:14:38;101720.16;;;6.43;74.35
15750;BME280;7976;52.526;13.326;2024-03-17T00:17:05;101722.75;;;6.44;74.20
15750;BME280;7976;52.526;13.326;2024-03-17T00:19:31;101708.91;;;6.42;74.41
15750;BME280;7976;52.526;13.326;2024-03-17T00:21:58;101703.69;;;6.42;74.20
15750;BME280;7976;52.526;13.326;2024-03-17T00:24:24;101708.91;;;6.41;74.34
15750;BME280;7976;52.526;13.326;2024-03-17T00:26:50;101710.63;;;6.42;74.38
15750;BME280;7976;52.526;13.326;2024-03-17T00:29:16;101714.97;;;6.43;74.33
15750;BME280;7976;52.526;13.326;2024-03-17T00:31:44;101721.91;;;6.41;74.50
15750;BME280;7976;52.526;13.326;2024-03-17T00:34:10;101723.66;;;6.35;74.39
15750;BME280;7976;52.526;13.326;2024-03-17T00:36:37;101726.28;;;6.31;74.76
15750;BME280;7976;52.526;13.326;2024-03-17T00:39:03;101728.00;;;6.29;74.78
15750;BME280;7976;52.526;13.326;2024-03-17T00:41:30;101725.44;;;6.27;74.92
15750;BME280;7976;52.526;13.326;2024-03-17T00:43:56;101724.53;;;6.28;75.00
15750;BME280;7976;52.526;13.326;2024-03-17T00:46:23;101729.75;;;6.28;75.03
15750;BME280;7976;52.526;13.326;2024-03-17T00:48:51;101724.56;;;6.27;75.06
15750;BME280;7976;52.526;13.326;2024-03-17T00:51:18;101726.28;;;6.28;74.89
15750;BME280;7976;52.526;13.326;2024-03-17T00:53:44;101727.19;;;6.22;75.02
15750;BME280;7976;52.526;13.326;2024-03-17T00:56:11;101733.22;;;6.20;75.48
15750;BME280;7976;52.526;13.326;2024-03-17T00:58:37;101728.03;;;6.20;75.59
15750;BME280;7976;52.526;13.326;2024-03-17T01:01:04;101723.72;;;6.17;75.51
15750;BME280;7976;52.526;13.326;2024-03-17T01:03:30;101729.78;;;6.18;75.49
15750;BME280;7976;52.526;13.326;2024-03-17T01:05:58;101727.19;;;6.15;75.46
15750;BME280;7976;52.526;13.326;2024-03-17T01:08:24;101734.13;;;6.16;75.39
15750;BME280;7976;52.526;13.326;2024-03-17T01:10:51;101738.44;;;6.15;75.21
15750;BME280;7976;52.526;13.326;2024-03-17T01:13:17;101739.31;;;6.19;75.58
15750;BME280;7976;52.526;13.326;2024-03-17T01:15:44;101730.66;;;6.18;75.31
15750;BME280;7976;52.526;13.326;2024-03-17T01:18:10;101737.56;;;6.16;75.35
15750;BME280;7976;52.526;13.326;2024-03-17T01:20:38;101736.72;;;6.13;75.49
15750;BME280;7976;52.526;13.326;2024-03-17T01:23:05;101738.47;;;6.11;75.44
15750;BME280;7976;52.526;13.326;2024-03-17T01:25:34;101735.03;;;6.06;75.57
15750;BME280;7976;52.526;13.326;2024-03-17T01:28:03;101731.56;;;6.04;75.89
15750;BME280;7976;52.526;13.326;2024-03-17T01:30:30;101731.56;;;6.02;76.18
15750;BME280;7976;52.526;13.326;2024-03-17T01:32:56;101737.63;;;6.00;76.31
15750;BME280;7976;52.526;13.326;2024-03-17T01:35:23;101740.22;;;5.98;76.45
15750;BME280;7976;52.526;13.326;2024-03-17T01:37:48;101729.84;;;5.97;76.57
15750;BME280;7976;52.526;13.326;2024-03-17T01:40:17;101728.97;;;5.95;76.79
15750;BME280;7976;52.526;13.326;2024-03-17T01:42:43;101720.31;;;5.93;76.45
15750;BME280;7976;52.526;13.326;2024-03-17T01:45:27;101726.38;;;5.95;76.99
15750;BME280;7976;52.526;13.326;2024-03-17T01:47:54;101732.47;;;5.92;76.94
15750;BME280;7976;52.526;13.326;2024-03-17T01:50:24;101735.91;;;5.90;77.17
15750;BME280;7976;52.526;13.326;2024-03-17T01:52:53;101726.41;;;5.89;77.16
15750;BME280;7976;52.526;13.326;2024-03-17T01:55:27;101721.22;;;5.89;77.34
15750;BME280;7976;52.526;13.326;2024-03-17T01:57:54;101737.66;;;5.86;77.21
15750;BME280;7976;52.526;13.326;2024-03-17T02:00:21;101727.25;;;5.85;77.32
15750;BME280;7976;52.526;13.326;2024-03-17T02:02:48;101728.97;;;5.81;77.16
15750;BME280;7976;52.526;13.326;2024-03-17T02:05:17;101735.03;;;5.79;77.65
15750;BME280;7976;52.526;13.326;2024-03-17T02:07:43;101739.38;;;5.74;77.81
15750;BME280;7976;52.526;13.326;2024-03-17T02:10:10;101737.66;;;5.68;77.93
15750;BME280;7976;52.526;13.326;2024-03-17T02:12:37;101742.84;;;5.65;78.04
15750;BME280;7976;52.526;13.326;2024-03-17T02:15:06;101746.31;;;5.63;78.23
15750;BME280;7976;52.526;13.326;2024-03-17T02:17:33;101752.38;;;5.60;78.24
15750;BME280;7976;52.526;13.326;2024-03-17T02:20:00;101743.72;;;5.55;78.23
15750;BME280;7976;52.526;13.326;2024-03-17T02:22:28;101739.38;;;5.53;78.46
15750;BME280;7976;52.526;13.326;2024-03-17T02:24:54;101739.41;;;5.56;78.51
15750;BME280;7976;52.526;13.326;2024-03-17T02:27:20;101729.88;;;5.55;78.47
15750;BME280;7976;52.526;13.326;2024-03-17T02:29:47;101740.25;;;5.52;78.60
15750;BME280;7976;52.526;13.326;2024-03-17T02:32:13;101733.31;;;5.48;78.76
15750;BME280;7976;52.526;13.326;2024-03-17T02:34:40;101737.69;;;5.44;78.67
15750;BME280;7976;52.526;13.326;2024-03-17T02:37:06;101738.53;;;5.42;78.66
15750;BME280;7976;52.526;13.326;2024-03-17T02:39:35;101752.38;;;5.41;79.05
15750;BME280;7976;52.526;13.326;2024-03-17T02:42:03;101742.00;;;5.41;79.08
15750;BME280;7976;52.526;13.326;2024-03-17T02:44:32;101745.44;;;5.38;79.05
15750;BME280;7976;52.526;13.326;2024-03-17T02:47:01;101743.75;;;5.36;79.18
15750;BME280;7976;52.526;13.326;2024-03-17T02:49:30;101748.94;;;5.34;79.08
15750;BME280;7976;52.526;13.326;2024-03-17T02:52:03;101740.28;;;5.29;79.18
15750;BME280;7976;52.526;13.326;2024-03-17T02:54:31;101741.13;;;5.28;79.39
15750;BME280;7976;52.526;13.326;2024-03-17T02:56:59;101742.00;;;5.29;79.56
15750;BME280;7976;52.526;13.326;2024-03-17T02:59:26;101748.03;;;5.26;79.35
15750;BME280;7976;52.526;13.326;2024-03-17T03:01:53;101747.16;;;5.23;79.38
15750;BME280;7976;52.526;13.326;2024-03-17T03:04:20;101746.31;;;5.19;79.38
15750;BME280;7976;52.526;13.326;2024-03-17T03:06:47;101741.97;;;5.15;79.83
15750;BME280;7976;52.526;13.326;2024-03-17T03:09:14;101741.09;;;5.14;79.83
15750;BME280;7976;52.526;13.326;2024-03-17T03:11:51;101738.50;;;5.14;79.85
15750;BME280;7976;52.526;13.326;2024-03-17T03:14:19;101736.81;;;5.10;79.90
15750;BME280;7976;52.526;13.326;2024-03-17T03:16:47;101741.97;;;5.07;79.92
15750;BME280;7976;52.526;13.326;2024-03-17T03:19:15;101739.38;;;5.07;80.39
15750;BME280;7976;52.526;13.326;2024-03-17T03:21:42;101743.72;;;5.05;80.22
15750;BME280;7976;52.526;13.326;2024-03-17T03:24:09;101747.16;;;5.06;80.53
15750;BME280;7976;52.526;13.326;2024-03-17T03:26:35;101749.75;;;5.03;80.36
15750;BME280;7976;52.526;13.326;2024-03-17T03:29:02;101744.56;;;5.01;80.51
15750;BME280;7976;52.526;13.326;2024-03-17T03:31:31;101747.16;;;4.98;80.70
15750;BME280;7976;52.526;13.326;2024-03-17T03:33:58;101743.69;;;4.99;80.61
15750;BME280;7976;52.526;13.326;2024-03-17T03:36:27;101750.59;;;4.94;80.90
15750;BME280;7976;52.526;13.326;2024-03-17T03:38:54;101754.91;;;4.92;81.06
15750;BME280;7976;52.526;13.326;2024-03-17T03:41:23;101749.72;;;4.89;81.06
15750;BME280;7976;52.526;13.326;2024-03-17T03:43:50;101753.19;;;4.88;81.36
15750;BME280;7976;52.526;13.326;2024-03-17T03:46:18;101749.72;;;4.88;81.56
15750;BME280;7976;52.526;13.326;2024-03-17T03:48:47;101741.94;;;4.86;81.60
15750;BME280;7976;52.526;13.326;2024-03-17T03:51:14;101750.59;;;4.88;81.50
15750;BME280;7976;52.526;13.326;2024-03-17T03:53:41;101757.50;;;4.89;81.56
15750;BME280;7976;52.526;13.326;2024-03-17T03:56:08;101757.50;;;4.89;81.63
15750;BME280;7976;52.526;13.326;2024-03-17T03:58:37;101760.97;;;4.88;81.89
15750;BME280;7976;52.526;13.326;2024-03-17T04:01:05;101759.22;;;4.86;81.83
15750;BME280;7976;52.526;13.326;2024-03-17T04:03:33;101759.22;;;4.84;82.18
15750;BME280;7976;52.526;13.326;2024-03-17T04:06:07;101762.66;;;4.82;82.21
15750;BME280;7976;52.526;13.326;2024-03-17T04:08:35;101767.84;;;4.82;82.46
15750;BME280;7976;52.526;13.326;2024-03-17T04:11:04;101769.56;;;4.83;82.64
15750;BME280;7976;52.526;13.326;2024-03-17T04:13:31;101759.19;;;4.81;82.63
15750;BME280;7976;52.526;13.326;2024-03-17T04:15:59;101756.63;;;4.83;82.86
15750;BME280;7976;52.526;13.326;2024-03-17T04:18:27;101754.91;;;4.83;82.90
15750;BME280;7976;52.526;13.326;2024-03-17T04:20:56;101765.25;;;4.82;82.98
15750;BME280;7976;52.526;13.326;2024-03-17T04:23:25;101754.91;;;4.82;83.18
15750;BME280;7976;52.526;13.326;2024-03-17T04:25:53;101755.75;;;4.82;83.14
15750;BME280;7976;52.526;13.326;2024-03-17T04:28:20;101756.63;;;4.80;83.37
15750;BME280;7976;52.526;13.326;2024-03-17T04:30:47;101759.19;;;4.78;83.35
15750;BME280;7976;52.526;13.326;2024-03-17T04:33:14;101762.63;;;4.73;83.45
15750;BME280;7976;52.526;13.326;2024-03-17T04:35:42;101762.63;;;4.71;83.85
15750;BME280;7976;52.526;13.326;2024-03-17T04:38:10;101760.03;;;4.70;83.73
15750;BME280;7976;52.526;13.326;2024-03-17T04:40:41;101766.06;;;4.64;84.04
15750;BME280;7976;52.526;13.326;2024-03-17T04:43:09;101771.25;;;4.63;84.34
15750;BME280;7976;52.526;13.326;2024-03-17T04:45:36;101766.06;;;4.61;84.44
15750;BME280;7976;52.526;13.326;2024-03-17T04:48:03;101777.28;;;4.62;84.48
15750;BME280;7976;52.526;13.326;2024-03-17T04:50:30;101775.53;;;4.61;84.68
15750;BME280;7976;52.526;13.326;2024-03-17T04:52:58;101784.19;;;4.61;84.68
15750;BME280;7976;52.526;13.326;2024-03-17T04:55:25;101788.50;;;4.56;84.55
15750;BME280;7976;52.526;13.326;2024-03-17T04:57:53;101774.66;;;4.57;84.82
15750;BME280;7976;52.526;13.326;2024-03-17T05:00:20;101781.59;;;4.61;84.88
15750;BME280;7976;52.526;13.326;2024-03-17T05:02:47;101796.28;;;4.61;84.75
15750;BME280;7976;52.526;13.326;2024-03-17T05:05:14;101782.47;;;4.60;84.97
15750;BME280;7976;52.526;13.326;2024-03-17T05:07:40;101780.72;;;4.58;84.71
15750;BME280;7976;52.526;13.326;2024-03-17T05:10:07;101791.97;;;4.58;84.80
15750;BME280;7976;52.526;13.326;2024-03-17T05:12:34;101785.03;;;4.57;84.96
15750;BME280;7976;52.526;13.326;2024-03-17T05:15:03;101785.03;;;4.57;85.17
15750;BME280;7976;52.526;13.326;2024-03-17T05:17:31;101786.78;;;4.58;85.13
15750;BME280;7976;52.526;13.326;2024-03-17T05:19:58;101784.19;;;4.60;85.17
15750;BME280;7976;52.526;13.326;2024-03-17T05:22:24;101782.47;;;4.60;85.08
15750;BME280;7976;52.526;13.326;2024-03-17T05:24:51;101789.38;;;4.61;84.90
15750;BME280;7976;52.526;13.326;2024-03-17T05:27:19;101783.31;;;4.59;85.07
15750;BME280;7976;52.526;13.326;2024-03-17T05:29:46;101787.63;;;4.59;84.98
15750;BME280;7976;52.526;13.326;2024-03-17T05:32:14;101791.97;;;4.58;85.12
15750;BME280;7976;52.526;13.326;2024-03-17T05:34:41;101795.41;;;4.57;85.04
15750;BME280;7976;52.526;13.326;2024-03-17T05:37:08;101800.56;;;4.57;85.07
15750;BME280;7976;52.526;13.326;2024-03-17T05:39:35;101804.91;;;4.60;85.09
15750;BME280;7976;52.526;13.326;2024-03-17T05:42:02;101804.94;;;4.61;85.02
15750;BME280;7976;52.526;13.326;2024-03-17T05:44:31;101804.94;;;4.61;84.89
15750;BME280;7976;52.526;13.326;2024-03-17T05:47:17;101792.78;;;4.56;84.85
15750;BME280;7976;52.526;13.326;2024-03-17T05:49:45;101806.63;;;4.58;85.03
15750;BME280;7976;52.526;13.326;2024-03-17T05:52:12;101794.50;;;4.54;85.13
15750;BME280;7976;52.526;13.326;2024-03-17T05:54:39;101807.50;;;4.55;85.16
15750;BME280;7976;52.526;13.326;2024-03-17T05:57:06;101808.34;;;4.57;85.20
15750;BME280;7976;52.526;13.326;2024-03-17T05:59:35;101808.34;;;4.56;85.12
15750;BME280;7976;52.526;13.326;2024-03-17T06:02:02;101803.16;;;4.50;85.20
15750;BME280;7976;52.526;13.326;2024-03-17T06:04:31;101815.22;;;4.51;85.30
15750;BME280;7976;52.526;13.326;2024-03-17T06:06:58;101831.72;;;4.60;85.75
15750;BME280;7976;52.526;13.326;2024-03-17T06:09:26;101830.84;;;4.63;85.44
15750;BME280;7976;52.526;13.326;2024-03-17T06:11:53;101823.06;;;4.64;85.39
15750;BME280;7976;52.526;13.326;2024-03-17T06:14:23;101830.00;;;4.68;85.70
15750;BME280;7976;52.526;13.326;2024-03-17T06:16:51;101826.53;;;4.63;85.67
15750;BME280;7976;52.526;13.326;2024-03-17T06:19:19;101842.97;;;4.68;85.70
15750;BME280;7976;52.526;13.326;2024-03-17T06:21:48;101837.81;;;4.73;85.67
15750;BME280;7976;52.526;13.326;2024-03-17T06:24:17;101833.50;;;4.73;85.59
15750;BME280;7976;52.526;13.326;2024-03-17T06:26:44;101832.63;;;4.74;85.44
15750;BME280;7976;52.526;13.326;2024-03-17T06:29:13;101843.03;;;4.86;85.79
15750;BME280;7976;52.526;13.326;2024-03-17T06:31:40;101843.94;;;4.91;85.77
15750;BME280;7976;52.526;13.326;2024-03-17T06:34:07;101850.88;;;4.95;85.45
15750;BME280;7976;52.526;13.326;2024-03-17T06:36:37;101847.41;;;5.01;85.28
15750;BME280;7976;52.526;13.326;2024-03-17T06:39:05;101846.56;;;5.06;85.08
15750;BME280;7976;52.526;13.326;2024-03-17T06:41:38;101855.22;;;5.08;85.24
15750;BME280;7976;52.526;13.326;2024-03-17T06:44:07;101848.31;;;5.10;84.78
15750;BME280;7976;52.526;13.326;2024-03-17T06:46:37;101848.34;;;5.20;84.66
15750;BME280;7976;52.526;13.326;2024-03-17T06:49:06;101854.41;;;5.26;84.20
15750;BME280;7976;52.526;13.326;2024-03-17T06:51:34;101850.97;;;5.29;84.00
15750;BME280;7976;52.526;13.326;2024-03-17T06:54:05;101857.03;;;5.34;83.40
15750;BME280;7976;52.526;13.326;2024-03-17T06:56:34;101856.16;;;5.38;83.03
15750;BME280;7976;52.526;13.326;2024-03-17T06:59:03;101866.56;;;5.44;82.96
15750;BME280;7976;52.526;13.326;2024-03-17T07:01:30;101873.50;;;5.51;82.69
15750;BME280;7976;52.526;13.326;2024-03-17T07:03:59;101875.22;;;5.52;82.42
15750;BME280;7976;52.526;13.326;2024-03-17T07:06:26;101874.38;;;5.60;82.13
15750;BME280;7976;52.526;13.326;2024-03-17T07:08:53;101884.78;;;5.71;81.65
15750;BME280;7976;52.526;13.326;2024-03-17T07:11:21;101891.69;;;5.72;81.42
15750;BME280;7976;52.526;13.326;2024-03-17T07:13:49;101903.84;;;5.85;81.00
15750;BME280;7976;52.526;13.326;2024-03-17T07:16:17;101892.63;;;5.89;80.53
15750;BME280;7976;52.526;13.326;2024-03-17T07:18:45;101904.72;;;6.03;80.17
15750;BME280;7976;52.526;13.326;2024-03-17T07:21:12;101898.66;;;6.12;79.75
15750;BME280;7976;52.526;13.326;2024-03-17T07:23:39;101903.88;;;6.24;79.48
15750;BME280;7976;52.526;13.326;2024-03-17T07:26:06;101902.13;;;6.23;79.21
15750;BME280;7976;52.526;13.326;2024-03-17T07:28:36;101903.88;;;6.19;78.91
15750;BME280;7976;52.526;13.326;2024-03-17T07:31:08;101902.16;;;6.26;79.02
15750;BME280;7976;52.526;13.326;2024-03-17T07:33:37;101908.19;;;6.28;78.69
15750;BME280;7976;52.526;13.326;2024-03-17T07:36:04;101901.25;;;6.38;78.58
15750;BME280;7976;52.526;13.326;2024-03-17T07:38:34;101900.41;;;6.45;78.17
15750;BME280;7976;52.526;13.326;2024-03-17T07:41:04;101904.69;;;6.47;77.98
15750;BME280;7976;52.526;13.326;2024-03-17T07:43:33;101913.38;;;6.46;77.93
15750;BME280;7976;52.526;13.326;2024-03-17T07:46:05;101928.09;;;6.55;77.95
15750;BME280;7976;52.526;13.326;2024-03-17T07:48:35;101909.88;;;6.53;77.58
15750;BME280;7976;52.526;13.326;2024-03-17T07:51:05;101918.53;;;6.57;77.56
15750;BME280;7976;52.526;13.326;2024-03-17T07:53:35;101928.97;;;6.49;77.31
15750;BME280;7976;52.526;13.326;2024-03-17T07:56:05;101915.09;;;6.50;77.38
15750;BME280;7976;52.526;13.326;2024-03-17T07:58:34;101923.75;;;6.61;77.32
15750;BME280;7976;52.526;13.326;2024-03-17T08:01:06;101915.09;;;6.61;77.26
15750;BME280;7976;52.526;13.326;2024-03-17T08:03:38;101920.28;;;6.59;77.08
15750;BME280;7976;52.526;13.326;2024-03-17T08:06:12;101925.47;;;6.71;76.87
15750;BME280;7976;52.526;13.326;2024-03-17T08:08:45;101921.97;;;6.81;76.87
15750;BME280;7976;52.526;13.326;2024-03-17T08:11:13;101926.28;;;6.93;75.94
15750;BME280;7976;52.526;13.326;2024-03-17T08:13:40;101916.72;;;6.98;75.71
15750;BME280;7976;52.526;13.326;2024-03-17T08:16:09;101911.47;;;7.05;75.37
15750;BME280;7976;52.526;13.326;2024-03-17T08:18:36;101918.38;;;7.20;74.79
15750;BME280;7976;52.526;13.326;2024-03-17T08:21:07;101913.13;;;7.26;74.26
15750;BME280;7976;52.526;13.326;2024-03-17T08:23:39;101920.03;;;7.34;73.85
15750;BME280;7976;52.526;13.326;2024-03-17T08:26:09;101909.63;;;7.34;73.35
15750;BME280;7976;52.526;13.326;2024-03-17T08:28:36;101913.09;;;7.36;73.13
15750;BME280;7976;52.526;13.326;2024-03-17T08:31:06;101912.22;;;7.36;72.54
15750;BME280;7976;52.526;13.326;2024-03-17T08:33:40;101905.28;;;7.35;71.78
15750;BME280;7976;52.526;13.326;2024-03-17T08:36:18;101900.06;;;7.33;71.39
15750;BME280;7976;52.526;13.326;2024-03-17T08:38:53;101913.06;;;7.38;71.55
15750;BME280;7976;52.526;13.326;2024-03-17T08:41:38;101904.44;;;7.31;71.13
15750;BME280;7976;52.526;13.326;2024-03-17T08:44:15;101897.47;;;7.30;71.30
15750;BME280;7976;52.526;13.326;2024-03-17T08:46:47;101902.63;;;7.42;71.01
15750;BME280;7976;52.526;13.326;2024-03-17T08:49:17;101906.88;;;7.55;70.63
15750;BME280;7976;52.526;13.326;2024-03-17T08:51:48;101911.16;;;7.72;69.78
15750;BME280;7976;52.526;13.326;2024-03-17T08:54:20;101915.47;;;7.71;69.44
15750;BME280;7976;52.526;13.326;2024-03-17T08:57:00;101909.38;;;7.77;69.23
15750;BME280;7976;52.526;13.326;2024-03-17T08:59:30;101908.41;;;7.88;69.20
15750;BME280;7976;52.526;13.326;2024-03-17T09:02:00;101913.63;;;7.90;67.67
15750;BME280;7976;52.526;13.326;2024-03-17T09:04:37;101914.47;;;7.87;67.09
15750;BME280;7976;52.526;13.326;2024-03-17T09:07:06;101910.09;;;7.95;66.90
15750;BME280;7976;52.526;13.326;2024-03-17T09:09:40;101918.75;;;7.97;66.69
15750;BME280;7976;52.526;13.326;2024-03-17T09:12:09;101908.28;;;8.06;66.57
15750;BME280;7976;52.526;13.326;2024-03-17T09:14:41;101915.97;;;8.20;65.99
15750;BME280;7976;52.526;13.326;2024-03-17T09:17:10;101925.53;;;8.19;65.64
15750;BME280;7976;52.526;13.326;2024-03-17T09:19:40;101925.66;;;8.04;64.65
15750;BME280;7976;52.526;13.326;2024-03-17T09:22:13;101915.31;;;7.97;64.82
15750;BME280;7976;52.526;13.326;2024-03-17T09:24:44;101916.91;;;8.11;64.49
15750;BME280;7976;52.526;13.326;2024-03-17T09:27:15;101907.31;;;8.18;64.32
15750;BME280;7976;52.526;13.326;2024-03-17T09:29:47;101918.53;;;8.32;64.63
15750;BME280;7976;52.526;13.326;2024-03-17T09:32:19;101904.56;;;8.34;64.39
15750;BME280;7976;52.526;13.326;2024-03-17T09:34:50;101918.41;;;8.42;64.65
15750;BME280;7976;52.526;13.326;2024-03-17T09:37:21;101918.59;;;8.20;64.44
15750;BME280;7976;52.526;13.326;2024-03-17T09:39:55;101932.69;;;7.95;64.72
15750;BME280;7976;52.526;13.326;2024-03-17T09:42:24;101931.94;;;7.78;65.16
15750;BME280;7976;52.526;13.326;2024-03-17T09:44:56;101924.16;;;7.67;65.42
15750;BME280;7976;52.526;13.326;2024-03-17T09:47:26;101919.88;;;7.64;65.37
15750;BME280;7976;52.526;13.326;2024-03-17T09:49:58;101920.56;;;7.88;65.31
15750;BME280;7976;52.526;13.326;2024-03-17T09:52:26;101927.28;;;8.17;64.86
15750;BME280;7976;52.526;13.326;2024-03-17T09:55:06;101917.56;;;8.42;64.45
15750;BME280;7976;52.526;13.326;2024-03-17T09:57:40;101913.03;;;8.60;63.50
15750;BME280;7976;52.526;13.326;2024-03-17T10:00:13;101917.34;;;8.63;63.03
15750;BME280;7976;52.526;13.326;2024-03-17T10:02:46;101905.09;;;8.69;62.76
15750;BME280;7976;52.526;13.326;2024-03-17T10:05:24;101900.66;;;8.76;61.97
15750;BME280;7976;52.526;13.326;2024-03-17T10:07:52;101903.28;;;8.79;61.96
15750;BME280;7976;52.526;13.326;2024-03-17T10:10:24;101908.47;;;8.80;61.92
15750;BME280;7976;52.526;13.326;2024-03-17T10:12:52;101903.28;;;8.76;61.90
15750;BME280;7976;52.526;13.326;2024-03-17T10:15:21;101900.69;;;8.74;61.49
15750;BME280;7976;52.526;13.326;2024-03-17T10:17:50;101903.91;;;8.96;61.19
15750;BME280;7976;52.526;13.326;2024-03-17T10:20:25;101911.56;;;9.11;60.37
15750;BME280;7976;52.526;13.326;2024-03-17T10:23:03;101910.66;;;9.15;59.37
15750;BME280;7976;52.526;13.326;2024-03-17T10:25:34;101908.09;;;9.12;59.60
15750;BME280;7976;52.526;13.326;2024-03-17T10:28:04;101920.22;;;9.16;59.21
15750;BME280;7976;52.526;13.326;2024-03-17T10:30:38;101903.00;;;9.02;59.26
15750;BME280;7976;52.526;13.326;2024-03-17T10:33:08;101918.00;;;8.83;59.57
15750;BME280;7976;52.526;13.326;2024-03-17T10:35:50;101902.25;;;8.91;59.82
15750;BME280;7976;52.526;13.326;2024-03-17T10:38:18;101910.47;;;9.29;59.68
15750;BME280;7976;52.526;13.326;2024-03-17T10:40:46;101910.06;;;9.59;59.12
15750;BME280;7976;52.526;13.326;2024-03-17T10:43:14;101908.97;;;9.73;58.90
15750;BME280;7976;52.526;13.326;2024-03-17T10:45:43;101901.94;;;9.78;58.34
15750;BME280;7976;52.526;13.326;2024-03-17T10:48:19;101904.69;;;9.71;58.61
15750;BME280;7976;52.526;13.326;2024-03-17T10:50:52;101918.78;;;9.58;59.22
15750;BME280;7976;52.526;13.326;2024-03-17T10:53:24;101913.34;;;9.73;59.05
15750;BME280;7976;52.526;13.326;2024-03-17T10:56:04;101912.16;;;9.93;58.77
15750;BME280;7976;52.526;13.326;2024-03-17T10:58:36;101912.56;;;10.24;57.97
15750;BME280;7976;52.526;13.326;2024-03-17T11:01:13;101911.16;;;10.54;57.61
15750;BME280;7976;52.526;13.326;2024-03-17T11:03:41;101907.13;;;10.82;56.58
15750;BME280;7976;52.526;13.326;2024-03-17T11:06:12;101898.19;;;10.92;55.47
15750;BME280;7976;52.526;13.326;2024-03-17T11:08:41;101915.44;;;11.05;54.58
15750;BME280;7976;52.526;13.326;2024-03-17T11:11:09;101908.53;;;10.99;53.89
15750;BME280;7976;52.526;13.326;2024-03-17T11:13:40;101895.50;;;10.96;54.26
15750;BME280;7976;52.526;13.326;2024-03-17T11:16:26;101903.03;;;11.13;54.36
15750;BME280;7976;52.526;13.326;2024-03-17T11:19:12;101885.84;;;11.00;54.22
15750;BME280;7976;52.526;13.326;2024-03-17T11:21:46;101911.81;;;10.66;53.93
15750;BME280;7976;52.526;13.326;2024-03-17T11:24:21;101907.78;;;10.47;54.56
15750;BME280;7976;52.526;13.326;2024-03-17T11:26:48;101891.88;;;10.07;54.73
15750;BME280;7976;52.526;13.326;2024-03-17T11:29:29;101900.94;;;9.87;54.97
15750;BME280;7976;52.526;13.326;2024-03-17T11:31:58;101901.16;;;9.72;55.42
15750;BME280;7976;52.526;13.326;2024-03-17T11:34:33;101899.50;;;9.65;55.38
15750;BME280;7976;52.526;13.326;2024-03-17T11:37:03;101898.84;;;9.52;55.93
15750;BME280;7976;52.526;13.326;2024-03-17T11:39:54;101894.41;;;9.57;56.34
15750;BME280;7976;52.526;13.326;2024-03-17T11:42:26;101888.25;;;9.61;56.60
15750;BME280;7976;52.526;13.326;2024-03-17T11:45:04;101895.81;;;9.78;56.66
15750;BME280;7976;52.526;13.326;2024-03-17T11:47:38;101894.81;;;9.89;55.64
15750;BME280;7976;52.526;13.326;2024-03-17T11:50:08;101892.88;;;10.00;55.18
15750;BME280;7976;52.526;13.326;2024-03-17T11:52:40;101900.41;;;10.20;54.14
15750;BME280;7976;52.526;13.326;2024-03-17T11:55:18;101902.72;;;10.40;53.81
15750;BME280;7976;52.526;13.326;2024-03-17T11:57:45;101901.66;;;10.50;53.78
15750;BME280;7976;52.526;13.326;2024-03-17T12:00:21;101900.75;;;10.51;53.41
15750;BME280;7976;52.526;13.326;2024-03-17T12:02:49;101887.22;;;10.28;53.78
15750;BME280;7976;52.526;13.326;2024-03-17T12:05:17;101895.94;;;10.27;53.17
15750;BME280;7976;52.526;13.326;2024-03-17T12:07:46;101885.94;;;9.96;52.54
15750;BME280;7976;52.526;13.326;2024-03-17T12:10:13;101880.16;;;9.76;52.37
15750;BME280;7976;52.526;13.326;2024-03-17T12:12:40;101895.94;;;9.72;52.50
15750;BME280;7976;52.526;13.326;2024-03-17T12:15:17;101900.81;;;9.93;52.80
15750;BME280;7976;52.526;13.326;2024-03-17T12:17:44;101883.81;;;10.23;52.47
15750;BME280;7976;52.526;13.326;2024-03-17T12:20:18;101878.19;;;10.44;51.07
15750;BME280;7976;52.526;13.326;2024-03-17T12:22:47;101881.50;;;10.55;50.70
15750;BME280;7976;52.526;13.326;2024-03-17T12:25:18;101875.16;;;10.66;50.96
15750;BME280;7976;52.526;13.326;2024-03-17T12:27:46;101869.66;;;10.80;50.87
15750;BME280;7976;52.526;13.326;2024-03-17T12:30:15;101870.94;;;11.03;50.86
15750;BME280;7976;52.526;13.326;2024-03-17T12:32:43;101867.06;;;11.19;50.22
15750;BME280;7976;52.526;13.326;2024-03-17T12:35:16;101868.41;;;11.38;49.69
15750;BME280;7976;52.526;13.326;2024-03-17T12:37:46;101867.09;;;11.58;48.73
15750;BME280;7976;52.526;13.326;2024-03-17T12:40:21;101853.84;;;11.65;48.43
15750;BME280;7976;52.526;13.326;2024-03-17T12:42:48;101865.00;;;11.73;48.04
15750;BME280;7976;52.526;13.326;2024-03-17T12:45:20;101856.38;;;11.68;48.06
15750;BME280;7976;52.526;13.326;2024-03-17T12:47:48;101857.22;;;11.70;48.41
15750;BME280;7976;52.526;13.326;2024-03-17T12:50:17;101857.25;;;11.69;48.38
15750;BME280;7976;52.526;13.326;2024-03-17T12:52:55;101843.50;;;11.58;48.57
15750;BME280;7976;52.526;13.326;2024-03-17T12:55:22;101854.97;;;11.52;48.30
15750;BME280;7976;52.526;13.326;2024-03-17T12:58:09;101855.84;;;11.53;48.80
15750;BME280;7976;52.526;13.326;2024-03-17T13:00:59;101856.59;;;11.58;48.42
15750;BME280;7976;52.526;13.326;2024-03-17T13:03:29;101867.19;;;11.53;48.35
15750;BME280;7976;52.526;13.326;2024-03-17T13:06:02;101854.00;;;11.56;48.35
15750;BME280;7976;52.526;13.326;2024-03-17T13:08:33;101872.13;;;11.68;48.08
15750;BME280;7976;52.526;13.326;2024-03-17T13:11:01;101864.03;;;11.77;47.82
15750;BME280;7976;52.526;13.326;2024-03-17T13:13:29;101866.91;;;11.67;48.04